Time;durP1;ratioP1;P1;durP2;ratioP2;P2;SDS_P1;SDS_P2;PMS_P1;PMS_P2;Temp;Humidity;BMP_temperature;BMP_pressure;BME280_temperature;BME280_humidity;BME280_pressure;Samples;Min_cycle;Max_cycle;Signal;HPM_P1;HPM_P2
2023/05/09 00:00:11;;;;;;;11.52;8.27;;;;;;;-145.70;100.00;63560.63;5037295;28;20032;-59
2023/05/09 19:22:55;;;;;;;21.00;15.05;;;;;;;-145.70;100.00;63560.63;5047025;28;20059;-62
2023/05/09 19:25:35;;;;;;;20.27;14.88;;;;;;;-145.70;100.00;63560.63;5027825;28;20105;-61
2023/05/09 19:28:45;;;;;;;21.15;16.33;;;;;;;-145.70;100.00;63560.63;5025906;28;20066;-62
2023/05/09 19:42:40;;;;;;;18.75;15.18;;;;;;;-145.70;100.00;63560.63;4958174;28;20044;-61
2023/05/09 19:45:21;;;;;;;19.63;14.77;;;;;;;-145.70;100.00;63560.63;4966171;28;20039;-61
2023/05/09 20:18:06;;;;;;;14.45;10.52;;;;;;;-145.70;100.00;63560.63;4985506;28;20135;-58
2023/05/09 20:20:37;;;;;;;14.27;10.75;;;;;;;-145.70;100.00;63560.63;5005371;28;20407;-62
2023/05/09 20:23:18;;;;;;;14.90;11.50;;;;;;;-145.70;100.00;63560.63;5001904;28;20028;-58
2023/05/09 20:25:46;;;;;;;15.60;10.68;;;;;;;-145.70;100.00;63560.63;5006018;28;20579;-59
2023/05/09 20:28:19;;;;;;;13.90;10.55;;;;;;;-145.70;100.00;63560.63;5019049;28;20537;-59
2023/05/09 20:30:50;;;;;;;14.75;10.88;;;;;;;-145.70;100.00;63560.63;5025447;28;20564;-60
2023/05/09 20:33:23;;;;;;;14.07;9.82;;;;;;;-145.70;100.00;63560.63;5035100;28;20068;-60
2023/05/09 20:35:52;;;;;;;12.82;9.80;;;;;;;-145.70;100.00;63560.63;5031068;28;20056;-59
2023/05/09 20:38:18;;;;;;;12.52;9.57;;;;;;;-145.70;100.00;63560.63;4998498;28;20021;-60
2023/05/09 20:40:44;;;;;;;15.88;10.48;;;;;;;-145.70;100.00;63560.63;4998872;28;20714;-61
2023/05/09 20:43:14;;;;;;;14.55;10.35;;;;;;;-145.70;100.00;63560.63;5023172;28;20021;-62
2023/05/09 20:45:40;;;;;;;14.35;10.25;;;;;;;-145.70;100.00;63560.63;5017716;28;20028;-61
2023/05/09 20:48:06;;;;;;;13.63;10.27;;;;;;;-145.70;100.00;63560.63;5008656;28;20096;-62
2023/05/09 20:50:32;;;;;;;13.90;10.48;;;;;;;-145.70;100.00;63560.63;5014801;28;20052;-61
2023/05/09 20:52:57;;;;;;;14.52;10.45;;;;;;;-145.70;100.00;63560.63;4999631;28;20078;-59
2023/05/09 20:55:23;;;;;;;13.65;10.18;;;;;;;-145.70;100.00;63560.63;5014018;28;20484;-61
2023/05/09 20:57:53;;;;;;;14.23;10.40;;;;;;;-145.70;100.00;63560.63;5008512;28;20036;-60
2023/05/09 21:00:19;;;;;;;13.85;10.50;;;;;;;-145.70;100.00;63560.63;5012454;28;20063;-62
2023/05/09 21:02:47;;;;;;;14.25;9.48;;;;;;;-145.70;100.00;63560.63;5014943;28;20484;-59
2023/05/09 21:05:13;;;;;;;15.02;10.85;;;;;;;-145.70;100.00;63560.63;5005329;28;20044;-60
2023/05/09 21:07:44;;;;;;;14.18;11.02;;;;;;;-145.70;100.00;63560.63;5033564;28;20029;-59
2023/05/09 21:10:11;;;;;;;15.77;11.05;;;;;;;-145.70;100.00;63560.63;5004403;28;20029;-58
2023/05/09 21:12:40;;;;;;;13.30;10.07;;;;;;;-145.70;100.00;63560.63;5018858;28;20554;-61
2023/05/09 21:15:12;;;;;;;13.65;11.00;;;;;;;-145.70;100.00;63560.63;5012398;28;20119;-61
2023/05/09 21:17:41;;;;;;;15.73;11.00;;;;;;;-145.70;100.00;63560.63;5017899;28;20036;-59
2023/05/09 21:20:19;;;;;;;12.55;9.88;;;;;;;-145.70;100.00;63560.63;4949520;28;20091;-60
2023/05/09 21:22:48;;;;;;;14.30;9.38;;;;;;;-145.70;100.00;63560.63;5006200;28;20053;-60
2023/05/09 21:25:16;;;;;;;14.65;9.77;;;;;;;-145.70;100.00;63560.63;5002275;28;20069;-59
2023/05/09 21:27:47;;;;;;;13.20;8.80;;;;;;;-145.70;100.00;63560.63;5001090;28;20063;-61
2023/05/09 21:30:12;;;;;;;13.05;9.30;;;;;;;-145.70;100.00;63560.63;5020442;28;20036;-59
2023/05/09 21:32:41;;;;;;;12.38;8.30;;;;;;;-145.70;100.00;63560.63;4998214;28;20059;-58
2023/05/09 21:35:11;;;;;;;11.77;8.45;;;;;;;-145.70;100.00;63560.63;5016698;28;20075;-60
2023/05/09 21:37:39;;;;;;;10.95;8.40;;;;;;;-145.70;100.00;63560.63;5006446;28;20037;-59
2023/05/09 21:40:08;;;;;;;10.85;7.97;;;;;;;-145.70;100.00;63560.63;5011384;28;20747;-58
2023/05/09 21:42:36;;;;;;;12.30;8.50;;;;;;;-145.70;100.00;63560.63;5025606;28;20040;-59
2023/05/09 21:45:06;;;;;;;11.80;8.15;;;;;;;-145.70;100.00;63560.63;5004881;28;20130;-59
2023/05/09 21:47:38;;;;;;;12.15;8.30;;;;;;;-145.70;100.00;63560.63;5031878;28;20480;-59
2023/05/09 21:50:07;;;;;;;9.93;7.75;;;;;;;-145.70;100.00;63560.63;5021145;28;20041;-59
2023/05/09 21:52:38;;;;;;;10.35;8.07;;;;;;;-145.70;100.00;63560.63;5013228;28;20110;-58
2023/05/09 21:55:09;;;;;;;12.02;8.82;;;;;;;-145.70;100.00;63560.63;5009887;28;21424;-60
2023/05/09 21:57:44;;;;;;;12.50;8.55;;;;;;;-145.70;100.00;63560.63;5013520;28;20042;-59
2023/05/09 22:00:15;;;;;;;12.50;7.80;;;;;;;-145.70;100.00;63560.63;5028448;28;20048;-58
2023/05/09 22:02:47;;;;;;;11.38;8.10;;;;;;;-145.70;100.00;63560.63;4988442;28;20028;-60
2023/05/09 22:05:12;;;;;;;11.02;7.63;;;;;;;-145.70;100.00;63560.63;5022303;28;20059;-59
2023/05/09 22:07:38;;;;;;;9.30;6.82;;;;;;;-145.70;100.00;63560.63;5009880;28;21271;-59
2023/05/09 22:10:04;;;;;;;9.10;6.80;;;;;;;-145.70;100.00;63560.63;5003616;28;20029;-59
2023/05/09 22:12:32;;;;;;;11.02;7.15;;;;;;;-145.70;100.00;63560.63;4997373;28;20048;-59
2023/05/09 22:15:01;;;;;;;10.13;6.88;;;;;;;-145.70;100.00;63560.63;5027366;28;20045;-60
2023/05/09 22:17:29;;;;;;;10.53;7.37;;;;;;;-145.70;100.00;63560.63;5010477;28;20482;-60
2023/05/09 22:19:57;;;;;;;10.20;7.25;;;;;;;-145.70;100.00;63560.63;4993384;28;20091;-60
2023/05/09 22:22:25;;;;;;;11.10;7.45;;;;;;;-145.70;100.00;63560.63;5023336;28;20033;-62
2023/05/09 22:24:59;;;;;;;9.55;6.88;;;;;;;-145.70;100.00;63560.63;5007759;28;20118;-60
2023/05/09 22:27:45;;;;;;;9.23;6.65;;;;;;;-145.70;100.00;63560.63;4994383;28;20032;-59
2023/05/09 22:30:11;;;;;;;11.35;7.28;;;;;;;-145.70;100.00;63560.63;5003227;28;20889;-59
2023/05/09 22:32:39;;;;;;;8.68;6.10;;;;;;;-145.70;100.00;63560.63;4991664;28;20611;-59
2023/05/09 22:35:08;;;;;;;9.65;6.90;;;;;;;-145.70;100.00;63560.63;5010189;28;20071;-59
2023/05/09 22:37:36;;;;;;;11.63;6.50;;;;;;;-145.70;100.00;63560.63;5009387;28;20579;-60
2023/05/09 22:40:17;;;;;;;8.20;5.75;;;;;;;-145.70;100.00;63560.63;5016065;28;20035;-60
2023/05/09 22:42:55;;;;;;;8.93;6.13;;;;;;;-145.70;100.00;63560.63;5007543;28;20017;-59
2023/05/09 22:45:23;;;;;;;8.77;6.25;;;;;;;-145.70;100.00;63560.63;4992845;28;20552;-59
2023/05/09 22:47:51;;;;;;;8.40;5.95;;;;;;;-145.70;100.00;63560.63;4978317;28;21308;-59
2023/05/09 22:50:22;;;;;;;8.85;6.40;;;;;;;-145.70;100.00;63560.63;4993992;28;20037;-60
2023/05/09 22:52:51;;;;;;;8.95;5.53;;;;;;;-145.70;100.00;63560.63;5023579;28;20048;-59
2023/05/09 22:55:17;;;;;;;8.15;5.22;;;;;;;-145.70;100.00;63560.63;5011849;28;20022;-58
2023/05/09 22:57:46;;;;;;;7.97;5.57;;;;;;;-145.70;100.00;63560.63;5006194;28;20075;-59
2023/05/09 23:00:20;;;;;;;8.65;5.78;;;;;;;-145.70;100.00;63560.63;5000830;28;20037;-59
2023/05/09 23:02:46;;;;;;;9.70;5.72;;;;;;;-145.70;100.00;63560.63;4996096;28;20044;-59
2023/05/09 23:05:20;;;;;;;10.52;6.03;;;;;;;-145.70;100.00;63560.63;5002322;28;21585;-60
2023/05/09 23:07:48;;;;;;;7.22;4.82;;;;;;;-145.70;100.00;63560.63;5004580;28;20080;-61
2023/05/09 23:10:22;;;;;;;8.27;5.53;;;;;;;-145.70;100.00;63560.63;4996139;28;20629;-59
2023/05/09 23:12:53;;;;;;;9.77;6.15;;;;;;;-145.70;100.00;63560.63;4995694;28;20036;-59
2023/05/09 23:15:21;;;;;;;9.02;5.80;;;;;;;-145.70;100.00;63560.63;5005978;28;20468;-60
2023/05/09 23:17:52;;;;;;;8.10;5.50;;;;;;;-145.70;100.00;63560.63;5014447;28;20036;-58
2023/05/09 23:20:18;;;;;;;8.02;5.22;;;;;;;-145.70;100.00;63560.63;5008073;28;20117;-59
2023/05/09 23:22:46;;;;;;;8.13;5.03;;;;;;;-145.70;100.00;63560.63;5011951;28;20045;-59
2023/05/09 23:25:22;;;;;;;8.63;4.97;;;;;;;-145.70;100.00;63560.63;4991760;28;20049;-59
2023/05/09 23:27:47;;;;;;;8.10;5.28;;;;;;;-145.70;100.00;63560.63;5008253;28;20029;-58
2023/05/09 23:30:26;;;;;;;7.63;5.30;;;;;;;-145.70;100.00;63560.63;5008325;28;20040;-60
2023/05/09 23:32:52;;;;;;;9.65;5.25;;;;;;;-145.70;100.00;63560.63;4996782;28;20025;-58
2023/05/09 23:35:25;;;;;;;8.82;5.30;;;;;;;-145.70;100.00;63560.63;5009735;28;20051;-59
2023/05/09 23:37:52;;;;;;;9.27;5.10;;;;;;;-145.70;100.00;63560.63;5015942;28;20465;-59
2023/05/09 23:40:26;;;;;;;7.50;5.07;;;;;;;-145.70;100.00;63560.63;4998981;28;20043;-59
2023/05/09 23:43:04;;;;;;;7.68;5.53;;;;;;;-145.70;100.00;63560.63;5016180;28;20047;-60
2023/05/09 23:45:31;;;;;;;8.95;5.80;;;;;;;-145.70;100.00;63560.63;5030312;28;20029;-58
2023/05/09 23:47:59;;;;;;;8.75;5.63;;;;;;;-145.70;100.00;63560.63;5017231;28;20500;-59
2023/05/09 23:50:33;;;;;;;7.45;5.35;;;;;;;-145.70;100.00;63560.63;5015344;28;20125;-59
2023/05/09 23:53:03;;;;;;;7.35;4.93;;;;;;;-145.70;100.00;63560.63;5009808;28;20044;-59
2023/05/09 23:55:37;;;;;;;8.40;5.47;;;;;;;-145.70;100.00;63560.63;4998585;28;20039;-59
2023/05/09 23:58:08;;;;;;;8.27;5.25;;;;;;;-145.70;100.00;63560.63;5016208;28;20028;-59
